sensor_id;sensor_type;location;lat;lon;timestamp;temperature;humidity
54260;DHT22;40172;53.022;7.012;2024-03-17T00:02:23;4.60;99.90
54260;DHT22;40172;53.022;7.012;2024-03-17T00:04:48;3.20;99.90
54260;DHT22;40172;53.022;7.012;2024-03-17T00:07:14;3.50;99.90
54260;DHT22;40172;53.022;7.012;2024-03-17T00:09:41;4.20;99.90
54260;DHT22;40172;53.022;7.012;2024-03-17T00:12:07;4.30;99.90
54260;DHT22;40172;53.022;7.012;2024-03-17T00:14:34;3.40;99.90
54260;DHT22;40172;53.022;7.012;2024-03-17T00:17:00;3.30;99.90
54260;DHT22;40172;53.022;7.012;2024-03-17T00:19:26;3.30;99.90
54260;DHT22;40172;53.022;7.012;2024-03-17T00:21:52;4.20;99.90
54260;DHT22;40172;53.022;7.012;2024-03-17T00:24:19;3.20;99.90
54260;DHT22;40172;53.022;7.012;2024-03-17T00:26:45;4.40;99.90
54260;DHT22;40172;53.022;7.012;2024-03-17T00:29:11;3.10;99.90
54260;DHT22;40172;53.022;7.012;2024-03-17T00:31:37;3.50;99.90
54260;DHT22;40172;53.022;7.012;2024-03-17T00:34:03;2.90;99.90
54260;DHT22;40172;53.022;7.012;2024-03-17T00:36:29;3.00;99.90
54260;DHT22;40172;53.022;7.012;2024-03-17T00:38:55;3.80;99.90
54260;DHT22;40172;53.022;7.012;2024-03-17T00:41:22;2.90;99.90
54260;DHT22;40172;53.022;7.012;2024-03-17T00:43:49;3.00;99.90
54260;DHT22;40172;53.022;7.012;2024-03-17T00:46:15;2.60;99.90
54260;DHT22;40172;53.022;7.012;2024-03-17T00:48:42;2.70;99.90
54260;DHT22;40172;53.022;7.012;2024-03-17T00:51:08;2.60;99.90
54260;DHT22;40172;53.022;7.012;2024-03-17T00:53:33;3.30;99.90
54260;DHT22;40172;53.022;7.012;2024-03-17T00:55:59;2.50;99.90
54260;DHT22;40172;53.022;7.012;2024-03-17T00:58:26;2.50;99.90
54260;DHT22;40172;53.022;7.012;2024-03-17T01:00:52;2.40;99.90
54260;DHT22;40172;53.022;7.012;2024-03-17T01:03:18;2.30;99.90
54260;DHT22;40172;53.022;7.012;2024-03-17T01:05:44;2.30;99.90
54260;DHT22;40172;53.022;7.012;2024-03-17T01:08:16;2.70;99.90
54260;DHT22;40172;53.022;7.012;2024-03-17T01:10:42;2.20;99.90
54260;DHT22;40172;53.022;7.012;2024-03-17T01:13:09;2.20;99.90
54260;DHT22;40172;53.022;7.012;2024-03-17T01:15:39;2.10;99.90
54260;DHT22;40172;53.022;7.012;2024-03-17T01:18:05;2.00;99.90
54260;DHT22;40172;53.022;7.012;2024-03-17T01:20:32;2.00;99.90
54260;DHT22;40172;53.022;7.012;2024-03-17T01:22:59;2.70;99.90
54260;DHT22;40172;53.022;7.012;2024-03-17T01:25:25;1.90;99.90
54260;DHT22;40172;53.022;7.012;2024-03-17T01:27:52;1.80;99.90
54260;DHT22;40172;53.022;7.012;2024-03-17T01:30:18;1.30;99.90
54260;DHT22;40172;53.022;7.012;2024-03-17T01:32:45;1.80;99.90
54260;DHT22;40172;53.022;7.012;2024-03-17T01:35:11;1.70;99.90
54260;DHT22;40172;53.022;7.012;2024-03-17T01:37:38;1.70;99.90
54260;DHT22;40172;53.022;7.012;2024-03-17T01:40:04;1.70;99.90
54260;DHT22;40172;53.022;7.012;2024-03-17T01:42:33;1.70;99.90
54260;DHT22;40172;53.022;7.012;2024-03-17T01:44:59;2.00;99.90
54260;DHT22;40172;53.022;7.012;2024-03-17T01:47:25;1.60;99.90
54260;DHT22;40172;53.022;7.012;2024-03-17T01:49:51;1.40;99.90
54260;DHT22;40172;53.022;7.012;2024-03-17T01:52:19;1.60;99.90
54260;DHT22;40172;53.022;7.012;2024-03-17T01:54:46;1.60;99.90
54260;DHT22;40172;53.022;7.012;2024-03-17T01:57:13;2.60;99.90
54260;DHT22;40172;53.022;7.012;2024-03-17T01:59:39;1.50;99.90
54260;DHT22;40172;53.022;7.012;2024-03-17T02:02:06;2.50;99.90
54260;DHT22;40172;53.022;7.012;2024-03-17T02:04:31;1.50;99.90
54260;DHT22;40172;53.022;7.012;2024-03-17T02:06:57;1.40;99.90
54260;DHT22;40172;53.022;7.012;2024-03-17T02:09:23;1.40;99.90
54260;DHT22;40172;53.022;7.012;2024-03-17T02:11:49;1.40;99.90
54260;DHT22;40172;53.022;7.012;2024-03-17T02:14:15;1.40;99.90
54260;DHT22;40172;53.022;7.012;2024-03-17T02:16:43;1.40;99.90
54260;DHT22;40172;53.022;7.012;2024-03-17T02:19:09;1.30;99.90
54260;DHT22;40172;53.022;7.012;2024-03-17T02:21:35;1.40;99.90
54260;DHT22;40172;53.022;7.012;2024-03-17T02:24:03;1.30;99.90
54260;DHT22;40172;53.022;7.012;2024-03-17T02:26:29;1.30;99.90
54260;DHT22;40172;53.022;7.012;2024-03-17T02:28:54;0.80;99.90
54260;DHT22;40172;53.022;7.012;2024-03-17T02:31:20;1.30;99.90
54260;DHT22;40172;53.022;7.012;2024-03-17T02:33:47;1.30;99.90
54260;DHT22;40172;53.022;7.012;2024-03-17T02:36:13;1.20;99.90
54260;DHT22;40172;53.022;7.012;2024-03-17T02:38:39;1.30;99.90
54260;DHT22;40172;53.022;7.012;2024-03-17T02:41:24;2.20;99.90
54260;DHT22;40172;53.022;7.012;2024-03-17T02:43:49;1.30;99.90
54260;DHT22;40172;53.022;7.012;2024-03-17T02:46:17;1.20;99.90
54260;DHT22;40172;53.022;7.012;2024-03-17T02:48:53;1.20;99.90
54260;DHT22;40172;53.022;7.012;2024-03-17T02:51:21;1.30;99.90
54260;DHT22;40172;53.022;7.012;2024-03-17T02:53:48;1.20;99.90
54260;DHT22;40172;53.022;7.012;2024-03-17T02:56:15;1.20;99.90
54260;DHT22;40172;53.022;7.012;2024-03-17T02:58:43;1.20;99.90
54260;DHT22;40172;53.022;7.012;2024-03-17T03:01:09;1.20;99.90
54260;DHT22;40172;53.022;7.012;2024-03-17T03:03:37;2.20;99.90
54260;DHT22;40172;53.022;7.012;2024-03-17T03:06:04;1.20;99.90
54260;DHT22;40172;53.022;7.012;2024-03-17T03:08:37;1.20;99.90
54260;DHT22;40172;53.022;7.012;2024-03-17T03:11:09;1.10;99.90
54260;DHT22;40172;53.022;7.012;2024-03-17T03:13:39;1.10;99.90
54260;DHT22;40172;53.022;7.012;2024-03-17T03:16:09;1.00;99.90
54260;DHT22;40172;53.022;7.012;2024-03-17T03:18:36;1.00;99.90
54260;DHT22;40172;53.022;7.012;2024-03-17T03:21:02;1.50;99.90
54260;DHT22;40172;53.022;7.012;2024-03-17T03:23:27;0.90;99.90
54260;DHT22;40172;53.022;7.012;2024-03-17T03:25:57;0.90;99.90
54260;DHT22;40172;53.022;7.012;2024-03-17T03:28:24;0.90;99.90
54260;DHT22;40172;53.022;7.012;2024-03-17T03:30:49;0.90;99.90
54260;DHT22;40172;53.022;7.012;2024-03-17T03:33:15;0.90;99.90
54260;DHT22;40172;53.022;7.012;2024-03-17T03:35:41;0.90;99.90
54260;DHT22;40172;53.022;7.012;2024-03-17T03:38:06;1.00;99.90
54260;DHT22;40172;53.022;7.012;2024-03-17T03:40:33;1.00;99.90
54260;DHT22;40172;53.022;7.012;2024-03-17T03:42:59;1.10;99.90
54260;DHT22;40172;53.022;7.012;2024-03-17T03:45:25;1.00;99.90
54260;DHT22;40172;53.022;7.012;2024-03-17T03:47:51;1.40;99.90
54260;DHT22;40172;53.022;7.012;2024-03-17T03:50:20;2.10;99.90
54260;DHT22;40172;53.022;7.012;2024-03-17T03:52:46;1.10;99.90
54260;DHT22;40172;53.022;7.012;2024-03-17T03:55:12;1.30;99.90
54260;DHT22;40172;53.022;7.012;2024-03-17T03:57:41;1.30;99.90
54260;DHT22;40172;53.022;7.012;2024-03-17T04:00:08;1.40;99.90
54260;DHT22;40172;53.022;7.012;2024-03-17T04:02:47;1.40;99.90
54260;DHT22;40172;53.022;7.012;2024-03-17T04:05:13;2.50;99.90
54260;DHT22;40172;53.022;7.012;2024-03-17T04:07:39;1.40;99.90
54260;DHT22;40172;53.022;7.012;2024-03-17T04:10:06;1.50;99.90
54260;DHT22;40172;53.022;7.012;2024-03-17T04:12:32;1.70;99.90
54260;DHT22;40172;53.022;7.012;2024-03-17T04:14:59;2.00;99.90
54260;DHT22;40172;53.022;7.012;2024-03-17T04:17:25;2.90;99.90
54260;DHT22;40172;53.022;7.012;2024-03-17T04:19:51;1.70;99.90
54260;DHT22;40172;53.022;7.012;2024-03-17T04:22:18;1.80;99.90
54260;DHT22;40172;53.022;7.012;2024-03-17T04:24:47;2.70;99.90
54260;DHT22;40172;53.022;7.012;2024-03-17T04:27:24;2.00;99.90
54260;DHT22;40172;53.022;7.012;2024-03-17T04:29:52;2.10;99.90
54260;DHT22;40172;53.022;7.012;2024-03-17T04:32:19;2.00;99.90
54260;DHT22;40172;53.022;7.012;2024-03-17T04:34:45;2.00;99.90
54260;DHT22;40172;53.022;7.012;2024-03-17T04:37:10;2.00;99.90
54260;DHT22;40172;53.022;7.012;2024-03-17T04:39:43;2.00;99.90
54260;DHT22;40172;53.022;7.012;2024-03-17T04:42:09;2.00;99.90
54260;DHT22;40172;53.022;7.012;2024-03-17T04:44:35;2.10;99.90
54260;DHT22;40172;53.022;7.012;2024-03-17T04:47:01;2.10;99.90
54260;DHT22;40172;53.022;7.012;2024-03-17T04:49:32;2.10;99.90
54260;DHT22;40172;53.022;7.012;2024-03-17T04:52:00;2.10;99.90
54260;DHT22;40172;53.022;7.012;2024-03-17T04:54:25;3.30;99.90
54260;DHT22;40172;53.022;7.012;2024-03-17T04:56:51;2.20;99.90
54260;DHT22;40172;53.022;7.012;2024-03-17T04:59:17;2.20;99.90
54260;DHT22;40172;53.022;7.012;2024-03-17T05:01:42;2.20;99.90
54260;DHT22;40172;53.022;7.012;2024-03-17T05:04:08;2.30;99.90
54260;DHT22;40172;53.022;7.012;2024-03-17T05:06:34;2.40;99.90
54260;DHT22;40172;53.022;7.012;2024-03-17T05:08:59;2.40;99.90
54260;DHT22;40172;53.022;7.012;2024-03-17T05:11:25;2.70;99.90
54260;DHT22;40172;53.022;7.012;2024-03-17T05:13:52;2.40;99.90
54260;DHT22;40172;53.022;7.012;2024-03-17T05:16:18;2.50;99.90
54260;DHT22;40172;53.022;7.012;2024-03-17T05:18:43;2.50;99.90
54260;DHT22;40172;53.022;7.012;2024-03-17T05:21:09;2.60;99.90
54260;DHT22;40172;53.022;7.012;2024-03-17T05:23:35;3.20;99.90
54260;DHT22;40172;53.022;7.012;2024-03-17T05:26:02;2.50;99.90
54260;DHT22;40172;53.022;7.012;2024-03-17T05:28:30;2.60;99.90
54260;DHT22;40172;53.022;7.012;2024-03-17T05:30:56;3.10;99.90
54260;DHT22;40172;53.022;7.012;2024-03-17T05:33:23;3.10;99.90
54260;DHT22;40172;53.022;7.012;2024-03-17T05:35:56;3.90;99.90
54260;DHT22;40172;53.022;7.012;2024-03-17T05:38:23;2.70;99.90
54260;DHT22;40172;53.022;7.012;2024-03-17T05:41:00;3.10;99.90
54260;DHT22;40172;53.022;7.012;2024-03-17T05:43:34;2.80;99.90
54260;DHT22;40172;53.022;7.012;2024-03-17T05:46:05;2.80;99.90
54260;DHT22;40172;53.022;7.012;2024-03-17T05:48:34;2.80;99.90
54260;DHT22;40172;53.022;7.012;2024-03-17T05:51:07;2.60;99.90
54260;DHT22;40172;53.022;7.012;2024-03-17T05:53:33;2.80;99.90
54260;DHT22;40172;53.022;7.012;2024-03-17T05:56:00;2.80;99.90
54260;DHT22;40172;53.022;7.012;2024-03-17T05:58:26;3.20;99.90
54260;DHT22;40172;53.022;7.012;2024-03-17T06:00:52;2.90;99.90
54260;DHT22;40172;53.022;7.012;2024-03-17T06:03:17;3.00;99.90
54260;DHT22;40172;53.022;7.012;2024-03-17T06:05:43;2.90;99.90
54260;DHT22;40172;53.022;7.012;2024-03-17T06:08:11;3.00;99.90
54260;DHT22;40172;53.022;7.012;2024-03-17T06:10:42;3.00;99.90
54260;DHT22;40172;53.022;7.012;2024-03-17T06:13:08;4.10;99.90
54260;DHT22;40172;53.022;7.012;2024-03-17T06:15:38;3.10;99.90
54260;DHT22;40172;53.022;7.012;2024-03-17T06:18:03;3.20;99.90
54260;DHT22;40172;53.022;7.012;2024-03-17T06:20:30;3.20;99.90
54260;DHT22;40172;53.022;7.012;2024-03-17T06:22:56;3.20;99.90
54260;DHT22;40172;53.022;7.012;2024-03-17T06:25:22;3.30;99.90
54260;DHT22;40172;53.022;7.012;2024-03-17T06:27:51;4.20;99.90
54260;DHT22;40172;53.022;7.012;2024-03-17T06:30:17;3.40;99.90
54260;DHT22;40172;53.022;7.012;2024-03-17T06:32:44;3.40;99.90
54260;DHT22;40172;53.022;7.012;2024-03-17T06:35:13;3.80;99.90
54260;DHT22;40172;53.022;7.012;2024-03-17T06:37:44;3.50;99.90
54260;DHT22;40172;53.022;7.012;2024-03-17T06:40:14;3.30;99.90
54260;DHT22;40172;53.022;7.012;2024-03-17T06:42:40;4.10;99.90
54260;DHT22;40172;53.022;7.012;2024-03-17T06:45:06;3.50;99.90
54260;DHT22;40172;53.022;7.012;2024-03-17T06:47:35;3.60;99.90
54260;DHT22;40172;53.022;7.012;2024-03-17T06:50:02;3.60;99.90
54260;DHT22;40172;53.022;7.012;2024-03-17T06:52:28;3.60;99.90
54260;DHT22;40172;53.022;7.012;2024-03-17T06:54:54;4.80;99.90
54260;DHT22;40172;53.022;7.012;2024-03-17T06:57:20;4.00;99.90
54260;DHT22;40172;53.022;7.012;2024-03-17T06:59:46;5.20;99.90
54260;DHT22;40172;53.022;7.012;2024-03-17T07:02:14;5.10;99.90
54260;DHT22;40172;53.022;7.012;2024-03-17T07:04:43;4.50;99.90
54260;DHT22;40172;53.022;7.012;2024-03-17T07:07:09;5.40;99.90
54260;DHT22;40172;53.022;7.012;2024-03-17T07:09:34;5.40;99.90
54260;DHT22;40172;53.022;7.012;2024-03-17T07:12:00;5.00;99.90
54260;DHT22;40172;53.022;7.012;2024-03-17T07:14:26;5.00;99.90
54260;DHT22;40172;53.022;7.012;2024-03-17T07:16:52;5.10;99.90
54260;DHT22;40172;53.022;7.012;2024-03-17T07:19:18;5.20;99.90
54260;DHT22;40172;53.022;7.012;2024-03-17T07:21:44;5.30;99.90
54260;DHT22;40172;53.022;7.012;2024-03-17T07:24:10;5.60;99.90
54260;DHT22;40172;53.022;7.012;2024-03-17T07:26:36;5.60;99.90
54260;DHT22;40172;53.022;7.012;2024-03-17T07:29:01;6.00;99.90
54260;DHT22;40172;53.022;7.012;2024-03-17T07:31:27;5.80;99.90
54260;DHT22;40172;53.022;7.012;2024-03-17T07:33:53;6.10;99.90
54260;DHT22;40172;53.022;7.012;2024-03-17T07:36:18;6.20;99.90
54260;DHT22;40172;53.022;7.012;2024-03-17T07:38:44;6.20;99.90
54260;DHT22;40172;53.022;7.012;2024-03-17T07:41:10;6.20;99.90
54260;DHT22;40172;53.022;7.012;2024-03-17T07:43:37;6.40;99.90
54260;DHT22;40172;53.022;7.012;2024-03-17T07:46:10;6.50;99.90
54260;DHT22;40172;53.022;7.012;2024-03-17T07:48:40;6.90;99.90
54260;DHT22;40172;53.022;7.012;2024-03-17T07:51:08;6.70;99.90
54260;DHT22;40172;53.022;7.012;2024-03-17T07:53:35;6.80;99.90
54260;DHT22;40172;53.022;7.012;2024-03-17T07:56:06;6.90;99.90
54260;DHT22;40172;53.022;7.012;2024-03-17T07:58:33;6.90;99.90
54260;DHT22;40172;53.022;7.012;2024-03-17T08:01:04;6.90;99.90
54260;DHT22;40172;53.022;7.012;2024-03-17T08:03:31;7.00;99.90
54260;DHT22;40172;53.022;7.012;2024-03-17T08:06:05;7.00;99.90
54260;DHT22;40172;53.022;7.012;2024-03-17T08:08:31;7.10;99.90
54260;DHT22;40172;53.022;7.012;2024-03-17T08:10:58;7.00;99.90
54260;DHT22;40172;53.022;7.012;2024-03-17T08:13:24;7.20;99.90
54260;DHT22;40172;53.022;7.012;2024-03-17T08:15:58;7.20;99.90
54260;DHT22;40172;53.022;7.012;2024-03-17T08:18:24;7.20;99.90
54260;DHT22;40172;53.022;7.012;2024-03-17T08:20:51;7.20;99.90
54260;DHT22;40172;53.022;7.012;2024-03-17T08:23:16;7.30;99.90
54260;DHT22;40172;53.022;7.012;2024-03-17T08:25:42;7.40;99.90
54260;DHT22;40172;53.022;7.012;2024-03-17T08:28:16;7.50;99.90
54260;DHT22;40172;53.022;7.012;2024-03-17T08:30:42;7.60;99.90
54260;DHT22;40172;53.022;7.012;2024-03-17T08:33:08;7.90;99.90
54260;DHT22;40172;53.022;7.012;2024-03-17T08:35:34;8.00;99.90
54260;DHT22;40172;53.022;7.012;2024-03-17T08:38:02;8.20;99.90
54260;DHT22;40172;53.022;7.012;2024-03-17T08:40:28;8.30;99.90
54260;DHT22;40172;53.022;7.012;2024-03-17T08:42:54;8.40;99.90
54260;DHT22;40172;53.022;7.012;2024-03-17T08:45:20;8.50;99.90
54260;DHT22;40172;53.022;7.012;2024-03-17T08:47:50;8.60;99.90
54260;DHT22;40172;53.022;7.012;2024-03-17T08:50:16;8.80;99.90
54260;DHT22;40172;53.022;7.012;2024-03-17T08:52:41;8.90;99.90
54260;DHT22;40172;53.022;7.012;2024-03-17T08:55:09;8.90;99.90
54260;DHT22;40172;53.022;7.012;2024-03-17T08:57:39;8.90;99.90
54260;DHT22;40172;53.022;7.012;2024-03-17T09:00:05;8.90;99.90
54260;DHT22;40172;53.022;7.012;2024-03-17T09:02:31;8.90;99.90
54260;DHT22;40172;53.022;7.012;2024-03-17T09:04:57;8.90;99.90
54260;DHT22;40172;53.022;7.012;2024-03-17T09:07:22;9.00;99.90
54260;DHT22;40172;53.022;7.012;2024-03-17T09:09:48;9.00;99.90
54260;DHT22;40172;53.022;7.012;2024-03-17T09:12:14;9.10;99.90
54260;DHT22;40172;53.022;7.012;2024-03-17T09:14:40;9.20;99.90
54260;DHT22;40172;53.022;7.012;2024-03-17T09:17:06;9.30;99.90
54260;DHT22;40172;53.022;7.012;2024-03-17T09:19:32;9.40;99.90
54260;DHT22;40172;53.022;7.012;2024-03-17T09:21:59;9.50;99.90
54260;DHT22;40172;53.022;7.012;2024-03-17T09:24:24;9.60;99.90
54260;DHT22;40172;53.022;7.012;2024-03-17T09:26:51;9.60;99.90
54260;DHT22;40172;53.022;7.012;2024-03-17T09:29:17;9.60;99.90
54260;DHT22;40172;53.022;7.012;2024-03-17T09:31:43;9.60;99.90
54260;DHT22;40172;53.022;7.012;2024-03-17T09:34:09;9.70;99.90
54260;DHT22;40172;53.022;7.012;2024-03-17T09:36:34;9.80;99.90
54260;DHT22;40172;53.022;7.012;2024-03-17T09:39:01;9.90;99.90
54260;DHT22;40172;53.022;7.012;2024-03-17T09:41:30;9.90;99.90
54260;DHT22;40172;53.022;7.012;2024-03-17T09:43:59;10.00;99.90
54260;DHT22;40172;53.022;7.012;2024-03-17T09:46:26;10.10;99.90
54260;DHT22;40172;53.022;7.012;2024-03-17T09:48:54;10.20;99.90
54260;DHT22;40172;53.022;7.012;2024-03-17T09:51:22;10.30;99.90
54260;DHT22;40172;53.022;7.012;2024-03-17T09:53:48;10.40;99.90
54260;DHT22;40172;53.022;7.012;2024-03-17T09:56:21;10.50;99.90
54260;DHT22;40172;53.022;7.012;2024-03-17T09:58:49;10.60;99.90
54260;DHT22;40172;53.022;7.012;2024-03-17T10:01:16;10.60;99.90
54260;DHT22;40172;53.022;7.012;2024-03-17T10:03:49;10.60;99.90
54260;DHT22;40172;53.022;7.012;2024-03-17T10:06:22;10.70;99.90
54260;DHT22;40172;53.022;7.012;2024-03-17T10:08:50;10.80;99.90
54260;DHT22;40172;53.022;7.012;2024-03-17T10:11:18;10.90;99.90
54260;DHT22;40172;53.022;7.012;2024-03-17T10:13:45;11.00;99.90
54260;DHT22;40172;53.022;7.012;2024-03-17T10:16:23;11.20;99.90
54260;DHT22;40172;53.022;7.012;2024-03-17T10:18:49;11.30;99.90
54260;DHT22;40172;53.022;7.012;2024-03-17T10:21:26;11.50;99.90
54260;DHT22;40172;53.022;7.012;2024-03-17T10:24:06;11.70;99.90
54260;DHT22;40172;53.022;7.012;2024-03-17T10:26:41;11.70;99.90
54260;DHT22;40172;53.022;7.012;2024-03-17T10:29:26;11.90;99.90
54260;DHT22;40172;53.022;7.012;2024-03-17T10:32:00;12.10;99.90
54260;DHT22;40172;53.022;7.012;2024-03-17T10:34:28;12.20;99.90
54260;DHT22;40172;53.022;7.012;2024-03-17T10:37:10;12.40;99.90
54260;DHT22;40172;53.022;7.012;2024-03-17T10:39:43;12.60;99.90
54260;DHT22;40172;53.022;7.012;2024-03-17T10:42:11;12.70;99.90
54260;DHT22;40172;53.022;7.012;2024-03-17T10:44:38;12.80;99.90
54260;DHT22;40172;53.022;7.012;2024-03-17T10:47:05;13.00;99.90
54260;DHT22;40172;53.022;7.012;2024-03-17T10:49:38;13.20;99.90
54260;DHT22;40172;53.022;7.012;2024-03-17T10:52:06;13.40;99.90
54260;DHT22;40172;53.022;7.012;2024-03-17T10:54:33;13.60;99.90
54260;DHT22;40172;53.022;7.012;2024-03-17T10:57:30;13.70;99.90
54260;DHT22;40172;53.022;7.012;2024-03-17T10:59:58;13.80;99.90
54260;DHT22;40172;53.022;7.012;2024-03-17T11:02:28;13.70;99.90
54260;DHT22;40172;53.022;7.012;2024-03-17T11:05:05;13.70;99.90
54260;DHT22;40172;53.022;7.012;2024-03-17T11:07:33;13.60;99.90
54260;DHT22;40172;53.022;7.012;2024-03-17T11:10:03;13.50;99.90
54260;DHT22;40172;53.022;7.012;2024-03-17T11:12:46;13.40;99.90
54260;DHT22;40172;53.022;7.012;2024-03-17T11:17:49;13.30;99.90
54260;DHT22;40172;53.022;7.012;2024-03-17T11:20:25;13.20;99.90
54260;DHT22;40172;53.022;7.012;2024-03-17T11:22:59;13.10;99.90
54260;DHT22;40172;53.022;7.012;2024-03-17T11:28:07;13.10;99.90
54260;DHT22;40172;53.022;7.012;2024-03-17T11:44:32;13.30;99.90
54260;DHT22;40172;53.022;7.012;2024-03-17T11:49:41;13.20;99.90
54260;DHT22;40172;53.022;7.012;2024-03-17T11:52:15;13.20;99.90
54260;DHT22;40172;53.022;7.012;2024-03-17T11:54:42;13.30;99.90
54260;DHT22;40172;53.022;7.012;2024-03-17T11:57:13;13.40;99.90
54260;DHT22;40172;53.022;7.012;2024-03-17T11:59:40;13.50;99.90
54260;DHT22;40172;53.022;7.012;2024-03-17T12:04:42;13.60;99.90
54260;DHT22;40172;53.022;7.012;2024-03-17T12:07:13;13.60;99.90
54260;DHT22;40172;53.022;7.012;2024-03-17T12:09:41;13.60;99.90
54260;DHT22;40172;53.022;7.012;2024-03-17T12:12:21;13.50;99.90
54260;DHT22;40172;53.022;7.012;2024-03-17T12:14:49;13.50;99.90
54260;DHT22;40172;53.022;7.012;2024-03-17T12:17:20;13.50;99.90
54260;DHT22;40172;53.022;7.012;2024-03-17T12:19:46;13.40;99.90
54260;DHT22;40172;53.022;7.012;2024-03-17T12:22:21;13.50;99.90
54260;DHT22;40172;53.022;7.012;2024-03-17T12:24:51;13.50;99.90
54260;DHT22;40172;53.022;7.012;2024-03-17T12:27:25;13.50;99.90
54260;DHT22;40172;53.022;7.012;2024-03-17T12:29:54;13.40;99.90
54260;DHT22;40172;53.022;7.012;2024-03-17T12:32:24;13.40;99.90
54260;DHT22;40172;53.022;7.012;2024-03-17T12:34:51;13.40;99.90
54260;DHT22;40172;53.022;7.012;2024-03-17T12:37:19;13.40;99.90
54260;DHT22;40172;53.022;7.012;2024-03-17T12:39:46;13.40;99.90
54260;DHT22;40172;53.022;7.012;2024-03-17T12:42:16;13.30;99.90
54260;DHT22;40172;53.022;7.012;2024-03-17T12:44:53;13.40;99.90
54260;DHT22;40172;53.022;7.012;2024-03-17T12:47:21;13.30;99.90
54260;DHT22;40172;53.022;7.012;2024-03-17T12:49:54;13.30;99.90
54260;DHT22;40172;53.022;7.012;2024-03-17T12:52:25;13.30;99.90
54260;DHT22;40172;53.022;7.012;2024-03-17T12:55:00;13.30;99.90
54260;DHT22;40172;53.022;7.012;2024-03-17T13:00:35;13.40;99.90
54260;DHT22;40172;53.022;7.012;2024-03-17T13:03:05;13.50;99.90
54260;DHT22;40172;53.022;7.012;2024-03-17T13:05:34;13.50;99.90
54260;DHT22;40172;53.022;7.012;2024-03-17T13:08:00;13.60;99.90
54260;DHT22;40172;53.022;7.012;2024-03-17T13:10:28;13.70;99.90
54260;DHT22;40172;53.022;7.012;2024-03-17T13:13:04;13.80;99.90
54260;DHT22;40172;53.022;7.012;2024-03-17T13:15:31;13.80;99.90
54260;DHT22;40172;53.022;7.012;2024-03-17T13:18:00;13.70;99.90
54260;DHT22;40172;53.022;7.012;2024-03-17T13:20:26;13.70;99.90
54260;DHT22;40172;53.022;7.012;2024-03-17T13:22:52;13.60;99.90
54260;DHT22;40172;53.022;7.012;2024-03-17T13:25:20;13.50;99.90
54260;DHT22;40172;53.022;7.012;2024-03-17T13:27:50;13.40;99.90
54260;DHT22;40172;53.022;7.012;2024-03-17T13:30:18;13.20;99.90
54260;DHT22;40172;53.022;7.012;2024-03-17T13:32:44;13.10;99.90
54260;DHT22;40172;53.022;7.012;2024-03-17T13:35:18;13.10;99.90
54260;DHT22;40172;53.022;7.012;2024-03-17T13:37:48;13.10;99.90
54260;DHT22;40172;53.022;7.012;2024-03-17T13:40:16;13.10;99.90
54260;DHT22;40172;53.022;7.012;2024-03-17T13:42:50;13.00;99.90
54260;DHT22;40172;53.022;7.012;2024-03-17T13:45:18;13.10;99.90
54260;DHT22;40172;53.022;7.012;2024-03-17T13:47:49;13.00;99.90
54260;DHT22;40172;53.022;7.012;2024-03-17T13:50:15;13.00;99.90
54260;DHT22;40172;53.022;7.012;2024-03-17T13:52:42;13.00;99.90
54260;DHT22;40172;53.022;7.012;2024-03-17T13:55:15;13.10;99.90
54260;DHT22;40172;53.022;7.012;2024-03-17T13:57:43;13.10;99.90
54260;DHT22;40172;53.022;7.012;2024-03-17T14:00:09;13.10;99.90
54260;DHT22;40172;53.022;7.012;2024-03-17T14:02:35;13.10;99.90
54260;DHT22;40172;53.022;7.012;2024-03-17T14:05:01;13.00;99.90
54260;DHT22;40172;53.022;7.012;2024-03-17T14:07:27;13.00;99.90
54260;DHT22;40172;53.022;7.012;2024-03-17T14:09:53;13.00;99.90
54260;DHT22;40172;53.022;7.012;2024-03-17T14:12:18;13.00;99.90
54260;DHT22;40172;53.022;7.012;2024-03-17T14:14:44;13.00;99.90
54260;DHT22;40172;53.022;7.012;2024-03-17T14:17:10;12.90;99.90
54260;DHT22;40172;53.022;7.012;2024-03-17T14:19:36;12.90;99.90
54260;DHT22;40172;53.022;7.012;2024-03-17T14:22:02;12.90;99.90
54260;DHT22;40172;53.022;7.012;2024-03-17T14:24:28;12.90;99.90
54260;DHT22;40172;53.022;7.012;2024-03-17T14:26:54;12.90;99.90
54260;DHT22;40172;53.022;7.012;2024-03-17T14:29:19;12.90;99.90
54260;DHT22;40172;53.022;7.012;2024-03-17T14:31:45;12.80;99.90
54260;DHT22;40172;53.022;7.012;2024-03-17T14:34:11;12.80;99.90
54260;DHT22;40172;53.022;7.012;2024-03-17T14:36:37;12.70;99.90
54260;DHT22;40172;53.022;7.012;2024-03-17T14:39:03;12.70;99.90
54260;DHT22;40172;53.022;7.012;2024-03-17T14:41:30;12.70;99.90
54260;DHT22;40172;53.022;7.012;2024-03-17T14:43:58;12.70;99.90
54260;DHT22;40172;53.022;7.012;2024-03-17T14:46:24;12.60;99.90
54260;DHT22;40172;53.022;7.012;2024-03-17T14:48:50;12.60;99.90
54260;DHT22;40172;53.022;7.012;2024-03-17T14:51:19;12.50;99.90
54260;DHT22;40172;53.022;7.012;2024-03-17T14:53:49;12.50;99.90
54260;DHT22;40172;53.022;7.012;2024-03-17T14:56:19;12.40;99.90
54260;DHT22;40172;53.022;7.012;2024-03-17T14:58:46;12.40;99.90
54260;DHT22;40172;53.022;7.012;2024-03-17T15:01:13;12.30;99.90
54260;DHT22;40172;53.022;7.012;2024-03-17T15:03:39;12.20;99.90
54260;DHT22;40172;53.022;7.012;2024-03-17T15:06:14;12.20;99.90
54260;DHT22;40172;53.022;7.012;2024-03-17T15:08:41;12.10;99.90
54260;DHT22;40172;53.022;7.012;2024-03-17T15:11:07;12.10;99.90
54260;DHT22;40172;53.022;7.012;2024-03-17T15:13:35;12.10;99.90
54260;DHT22;40172;53.022;7.012;2024-03-17T15:16:03;12.00;99.90
54260;DHT22;40172;53.022;7.012;2024-03-17T15:18:33;12.00;99.90
54260;DHT22;40172;53.022;7.012;2024-03-17T15:21:02;11.90;99.90
54260;DHT22;40172;53.022;7.012;2024-03-17T15:23:30;11.90;99.90
54260;DHT22;40172;53.022;7.012;2024-03-17T15:26:06;11.90;99.90
54260;DHT22;40172;53.022;7.012;2024-03-17T15:28:36;11.90;99.90
54260;DHT22;40172;53.022;7.012;2024-03-17T15:31:06;11.90;99.90
54260;DHT22;40172;53.022;7.012;2024-03-17T15:33:36;11.90;99.90
54260;DHT22;40172;53.022;7.012;2024-03-17T15:36:08;11.80;99.90
54260;DHT22;40172;53.022;7.012;2024-03-17T15:38:36;11.80;99.90
54260;DHT22;40172;53.022;7.012;2024-03-17T15:41:05;11.80;99.90
54260;DHT22;40172;53.022;7.012;2024-03-17T15:43:38;11.70;99.90
54260;DHT22;40172;53.022;7.012;2024-03-17T15:46:16;11.70;99.90
54260;DHT22;40172;53.022;7.012;2024-03-17T15:48:43;11.60;99.90
54260;DHT22;40172;53.022;7.012;2024-03-17T15:51:09;11.60;99.90
54260;DHT22;40172;53.022;7.012;2024-03-17T15:53:35;11.60;99.90
54260;DHT22;40172;53.022;7.012;2024-03-17T15:56:02;11.50;99.90
54260;DHT22;40172;53.022;7.012;2024-03-17T15:58:29;11.50;99.90
54260;DHT22;40172;53.022;7.012;2024-03-17T16:00:55;11.50;99.90
54260;DHT22;40172;53.022;7.012;2024-03-17T16:03:30;11.50;99.90
54260;DHT22;40172;53.022;7.012;2024-03-17T16:05:59;11.40;99.90
54260;DHT22;40172;53.022;7.012;2024-03-17T16:08:25;11.40;99.90
54260;DHT22;40172;53.022;7.012;2024-03-17T16:10:52;11.30;99.90
54260;DHT22;40172;53.022;7.012;2024-03-17T16:13:22;11.30;99.90